Time;durP1;ratioP1;P1;durP2;ratioP2;P2;SDS_P1;SDS_P2;PMS_P1;PMS_P2;Temp;Humidity;BMP_temperature;BMP_pressure;BME280_temperature;BME280_humidity;BME280_pressure;Samples;Min_cycle;Max_cycle;Signal;HPM_P1;HPM_P2
2021/07/13 00:01:44;;;;;;;;;5.00;4.25;;;;;17.89;78.28;100771.03;6315082;22;45529;-95
2021/07/13 00:04:14;;;;;;;;;3.00;3.00;;;;;17.86;78.24;100764.06;6314777;22;45136;-96
2021/07/13 00:06:42;;;;;;;;;3.00;3.00;;;;;18.06;78.39;100797.50;6315525;22;45579;-95
2021/07/13 00:09:17;;;;;;;;;3.25;3.25;;;;;17.43;78.28;100687.59;6315076;22;45453;-96
2021/07/13 00:11:45;;;;;;;;;4.25;3.75;;;;;17.39;78.93;100667.16;6291356;22;45344;-95
2021/07/13 00:14:19;;;;;;;;;2.50;2.50;;;;;17.46;79.19;100675.56;6342447;22;45301;-96
2021/07/13 00:20:59;;;;;;;;;4.25;4.00;;;;;17.61;79.01;100713.94;6194431;23;45611;-95
2021/07/13 00:23:48;;;;;;;;;5.50;5.50;;;;;17.27;78.65;100665.63;6194405;23;45190;-96
2021/07/13 00:26:26;;;;;;;;;;;;;;;;;;;;;
2021/07/13 00:29:05;;;;;;;;;5.00;3.50;;;;;18.39;79.78;100854.16;6188216;23;69529;-95
2021/07/13 00:31:34;;;;;;;;;5.75;5.75;;;;;17.91;79.72;100771.75;6193632;23;47258;-96
2021/07/13 00:34:05;;;;;;;;;6.00;6.00;;;;;17.49;79.44;100707.84;6168850;23;44901;-94
2021/07/13 00:36:42;;;;;;;;;8.50;5.25;;;;;17.46;79.51;100708.97;6193413;23;44809;-95
2021/07/13 00:39:13;;;;;;;;;7.75;6.75;;;;;17.51;79.57;100708.56;6169733;23;45282;-95
2021/07/13 00:41:51;;;;;;;;;;;;;;;;;;;;;
2021/07/13 00:44:34;;;;;;;;;;;;;;;;;;;;;
2021/07/13 00:47:01;;;;;;;;;6.50;5.25;;;;;17.39;79.77;100654.44;6191893;23;68133;-96
2021/07/13 00:49:27;;;;;;;;;8.50;6.25;;;;;17.39;78.93;100657.16;6166619;23;45335;-95
2021/07/13 00:51:53;;;;;;;;;8.25;6.75;;;;;17.40;79.36;100653.44;6191509;23;47110;-96
2021/07/13 00:54:23;;;;;;;;;6.00;5.00;;;;;17.45;79.57;100668.44;6167306;23;45416;-96
2021/07/13 00:56:58;;;;;;;;;8.50;8.50;;;;;18.29;80.00;100813.44;6280018;22;45339;-96
2021/07/13 00:59:33;;;;;;;;;9.75;9.75;;;;;17.98;79.32;100749.31;6343657;22;45281;-96
2021/07/13 01:02:04;;;;;;;;;9.75;8.00;;;;;17.53;79.45;100682.97;6336293;22;46896;-95
2021/07/13 01:04:58;;;;;;;;;13.50;9.50;;;;;17.41;79.39;100667.88;6320006;22;44823;-96
2021/07/13 01:07:39;;;;;;;;;9.00;8.50;;;;;17.39;79.27;100664.44;6319945;22;45302;-95
2021/07/13 01:10:55;;;;;;;;;;;;;;;;;;;;;
2021/07/13 01:14:13;;;;;;;;;11.75;11.00;;;;;18.26;79.72;100797.44;6320330;22;74497;-96
2021/07/13 01:17:24;;;;;;;;;;;;;;;;;;;;;
2021/07/13 01:20:32;;;;;;;;;16.00;13.75;;;;;17.37;79.12;100680.88;6195318;23;68263;-96
2021/07/13 01:23:40;;;;;;;;;14.00;14.00;;;;;17.85;79.65;100741.50;6194956;23;45198;-95
2021/07/13 01:30:51;;;;;;;;;;;;;;;;;;;;;
2021/07/13 01:34:04;;;;;;;;;;;;;;;;;;;;;
2021/07/13 01:36:32;;;;;;;;;15.50;13.25;;;;;17.27;79.39;100658.31;6018689;23;45543;-96
2021/07/13 01:39:17;;;;;;;;;;;;;;;;;;;;;
2021/07/13 01:42:08;;;;;;;;;20.25;14.25;;;;;17.31;79.45;100675.19;6010992;23;72134;-94
2021/07/13 01:45:00;;;;;;;;;16.00;15.00;;;;;17.29;78.91;100669.03;5980980;23;44832;-94
2021/07/13 01:48:03;;;;;;;;;;;;;;;;;;;;;
2021/07/13 01:53:36;;;;;;;;;;;;;;;;;;;;;
2021/07/13 01:56:22;;;;;;;;;20.00;15.75;;;;;17.25;78.33;100665.75;6106110;23;68100;-96
2021/07/13 01:59:46;;;;;;;;;;;;;;;;;;;;;
2021/07/13 02:02:48;;;;;;;;;;;;;;;;;;;;;
2021/07/13 02:09:50;;;;;;;;;;;;;;;;;;;;;
2021/07/13 02:12:12;;;;;;;;;18.75;18.25;;;;;17.35;78.77;100680.16;6167321;23;45214;-96
2021/07/13 02:15:14;;;;;;;;;;;;;;;;;;;;;
2021/07/13 02:18:29;;;;;;;;;23.50;21.25;;;;;18.26;79.35;100821.91;6135724;23;72038;-96
2021/07/13 02:21:43;;;;;;;;;;;;;;;;;;;;;
2021/07/13 02:24:36;;;;;;;;;;;;;;;;;;;;;
2021/07/13 02:27:27;;;;;;;;;;;;;;;;;;;;;
2021/07/13 02:30:39;;;;;;;;;18.50;16.75;;;;;17.36;78.48;100659.31;6103891;23;72200;-94
2021/07/13 02:33:38;;;;;;;;;;;;;;;;;;;;;
2021/07/13 02:39:15;;;;;;;;;17.25;13.25;;;;;17.40;78.25;100667.00;6098279;23;45222;-96
2021/07/13 02:41:53;;;;;;;;;13.50;12.25;;;;;18.31;78.27;100815.00;6102901;23;44953;-96
2021/07/13 02:44:23;;;;;;;;;16.00;14.75;;;;;17.39;78.35;100657.16;6079080;23;45453;-96
2021/07/13 02:47:05;;;;;;;;;;;;;;;;;;;;;
2021/07/13 02:49:43;;;;;;;;;;;;;;;;;;;;;
2021/07/13 02:52:24;;;;;;;;;;;;;;;;;;;;;
2021/07/13 02:55:26;;;;;;;;;;;;;;;;;;;;;
2021/07/13 03:00:58;;;;;;;;;12.00;12.00;;;;;18.22;78.71;100834.06;6353532;22;45515;-95
2021/07/13 03:03:37;;;;;;;;;;;;;;;;;;;;;
2021/07/13 03:06:19;;;;;;;;;;;;;;;;;;;;;
2021/07/13 03:09:23;;;;;;;;;;;;;;;;;;;;;
2021/07/13 03:15:19;;;;;;;;;13.00;9.50;;;;;18.25;78.93;100829.16;6330987;22;45460;-96
2021/07/13 03:17:55;;;;;;;;;12.25;12.25;;;;;17.22;79.01;100660.63;6325477;22;45391;-96
2021/07/13 03:21:09;;;;;;;;;;;;;;;;;;;;;
2021/07/13 03:24:02;;;;;;;;;;;;;;;;;;;;;
2021/07/13 03:27:05;;;;;;;;;;;;;;;;;;;;;
2021/07/13 03:30:05;;;;;;;;;;;;;;;;;;;;;
2021/07/13 03:32:41;;;;;;;;;14.00;11.25;;;;;17.94;79.13;100755.19;6352827;22;70156;-96
2021/07/13 03:35:22;;;;;;;;;;;;;;;;;;;;;
2021/07/13 03:37:54;;;;;;;;;14.00;11.75;;;;;17.66;78.77;100709.81;6327291;22;72202;-96
2021/07/13 03:44:32;;;;;;;;;;;;;;;;;;;;;
2021/07/13 03:47:29;;;;;;;;;11.50;11.50;;;;;17.66;78.40;100696.25;6189086;23;45601;-95
2021/07/13 03:49:56;;;;;;;;;13.00;11.75;;;;;17.30;78.69;100633.59;6168853;23;45193;-95
2021/07/13 03:52:29;;;;;;;;;10.75;9.75;;;;;17.25;79.15;100641.31;6195505;23;45254;-96
2021/07/13 03:55:17;;;;;;;;;10.50;9.25;;;;;17.44;79.29;100664.88;6194073;23;44854;-96
2021/07/13 03:57:59;;;;;;;;;;;;;;;;;;;;;
2021/07/13 04:00:38;;;;;;;;;;;;;;;;;;;;;
2021/07/13 04:03:21;;;;;;;;;8.75;8.25;;;;;18.26;79.24;100797.44;6193720;23;67579;-95
2021/07/13 04:05:58;;;;;;;;;11.25;9.75;;;;;17.20;79.33;100632.78;6169184;23;45227;-95
2021/07/13 04:08:24;;;;;;;;;9.50;9.50;;;;;17.29;79.04;100650.06;6193475;23;46615;-96
2021/07/13 04:10:50;;;;;;;;;11.75;10.25;;;;;17.20;78.89;100643.63;6168926;23;44792;-96
2021/07/13 04:13:16;;;;;;;;;11.00;7.75;;;;;17.30;79.07;100649.06;6167767;23;45433;-95
2021/07/13 04:15:44;;;;;;;;;9.50;9.00;;;;;17.35;78.65;100655.75;6177459;22;45323;-96
2021/07/13 04:18:10;;;;;;;;;9.50;8.00;;;;;17.27;78.40;100641.19;6315066;22;46683;-96
2021/07/13 04:20:36;;;;;;;;;11.00;10.00;;;;;17.34;78.47;100654.03;6316409;22;45679;-96
2021/07/13 04:23:02;;;;;;;;;9.25;9.25;;;;;17.29;78.65;100652.75;6315236;22;45210;-95
2021/07/13 04:25:27;;;;;;;;;13.50;12.25;;;;;17.36;78.83;100654.75;6312289;22;45571;-96
2021/07/13 04:27:56;;;;;;;;;10.75;10.00;;;;;17.27;78.55;100638.47;6313082;22;47096;-96
2021/07/13 04:30:24;;;;;;;;;10.00;8.25;;;;;17.62;79.10;100702.09;6315263;22;45407;-96
2021/07/13 04:32:52;;;;;;;;;14.75;12.75;;;;;17.20;78.89;100644.47;6342660;22;45217;-96
2021/07/13 04:35:21;;;;;;;;;14.50;11.50;;;;;18.00;79.11;100785.34;6342884;22;45210;-95
2021/07/13 04:37:46;;;;;;;;;12.75;11.75;;;;;17.25;79.05;100668.47;6315729;22;47760;-96
2021/07/13 04:40:13;;;;;;;;;13.75;9.25;;;;;17.27;78.74;100671.88;6316669;22;45271;-96
2021/07/13 04:42:48;;;;;;;;;;;;;;;;;;;;;
2021/07/13 04:45:40;;;;;;;;;12.50;12.50;;;;;17.95;78.86;100762.31;6351455;22;69933;-96
2021/07/13 04:48:23;;;;;;;;;;;;;;;;;;;;;
2021/07/13 04:50:49;;;;;;;;;13.50;11.25;;;;;17.22;78.69;100650.63;6350404;22;72165;-96
2021/07/13 04:53:35;;;;;;;;;;;;;;;;;;;;;
2021/07/13 04:56:13;;;;;;;;;9.75;9.75;;;;;17.24;78.82;100650.47;6350506;22;70136;-96
2021/07/13 04:58:38;;;;;;;;;18.25;15.00;;;;;18.12;78.77;100779.72;6323656;22;45721;-95
2021/07/13 05:01:40;;;;;;;;;;;;;;;;;;;;;
2021/07/13 05:04:13;;;;;;;;;12.25;10.25;;;;;17.27;78.83;100669.16;6341344;22;44812;-95
2021/07/13 05:07:00;;;;;;;;;;;;;;;;;;;;;
2021/07/13 05:09:53;;;;;;;;;16.75;14.25;;;;;17.29;78.96;100669.88;6350429;22;74349;-96
2021/07/13 05:12:26;;;;;;;;;15.25;14.00;;;;;18.15;79.00;100801.19;6350215;22;45174;-94
2021/07/13 05:14:55;;;;;;;;;14.25;12.25;;;;;17.23;78.46;100660.47;6348525;22;45200;-95
2021/07/13 05:17:20;;;;;;;;;13.25;13.00;;;;;17.82;78.95;100755.34;6322249;22;45301;-94
2021/07/13 05:19:56;;;;;;;;;12.75;10.50;;;;;17.09;78.56;100658.22;6322942;22;46600;-96
2021/07/13 05:22:22;;;;;;;;;15.00;13.25;;;;;17.28;79.28;100681.75;6349318;22;45441;-96
2021/07/13 05:24:48;;;;;;;;;15.25;13.75;;;;;18.15;78.79;100822.91;6324101;22;45408;-94
2021/07/13 05:27:17;;;;;;;;;15.50;14.25;;;;;17.69;78.91;100746.66;6326360;22;44875;-95
2021/07/13 05:29:45;;;;;;;;;14.50;13.00;;;;;18.05;79.19;100800.38;6326777;22;45607;-94
2021/07/13 05:32:14;;;;;;;;;14.50;13.25;;;;;17.99;79.12;100797.22;6358086;22;44943;-96
2021/07/13 05:34:43;;;;;;;;;13.00;11.25;;;;;17.15;79.32;100664.91;6340547;22;44708;-94
2021/07/13 05:37:24;;;;;;;;;;;;;;;;;;;;;
2021/07/13 05:40:00;;;;;;;;;15.50;15.50;;;;;18.23;79.07;100838.50;6351828;22;74582;-96
2021/07/13 05:42:33;;;;;;;;;17.00;15.75;;;;;17.35;78.88;100691.03;6326077;22;44823;-96
2021/07/13 05:45:15;;;;;;;;;16.50;15.00;;;;;17.32;79.22;100680.47;6353443;22;45250;-95
2021/07/13 05:47:43;;;;;;;;;15.50;14.75;;;;;17.38;78.68;100695.28;6300651;22;45401;-96
2021/07/13 05:50:24;;;;;;;;;14.50;14.50;;;;;17.75;78.95;100745.22;6325000;22;46635;-96
2021/07/13 05:53:02;;;;;;;;;;;;;;;;;;;;;
2021/07/13 05:58:39;;;;;;;;;13.75;12.50;;;;;17.40;78.70;100694.13;6353782;22;45139;-95
2021/07/13 06:01:09;;;;;;;;;15.50;12.00;;;;;18.29;79.27;100841.47;6325297;22;47711;-96
2021/07/13 06:03:40;;;;;;;;;16.00;14.00;;;;;17.47;78.76;100705.25;6352457;22;44761;-95
2021/07/13 06:06:11;;;;;;;;;16.00;14.00;;;;;17.94;78.73;100771.47;6325595;22;45375;-96
2021/07/13 06:08:42;;;;;;;;;17.75;17.00;;;;;17.69;79.09;100736.66;6325348;22;45482;-95
2021/07/13 06:11:25;;;;;;;;;;;;;;;;;;;;;
2021/07/13 06:14:04;;;;;;;;;;;;;;;;;;;;;
2021/07/13 06:16:45;;;;;;;;;;;;;;;;;;;;;
2021/07/13 06:19:16;;;;;;;;;13.75;12.00;;;;;18.10;79.11;100803.47;6351829;22;69491;-96
2021/07/13 06:21:43;;;;;;;;;14.75;13.25;;;;;17.45;78.86;100699.16;6346042;22;47152;-95
2021/07/13 06:24:09;;;;;;;;;14.25;12.75;;;;;17.25;78.76;100663.03;6319854;22;45115;-96
2021/07/13 06:26:37;;;;;;;;;19.00;15.25;;;;;17.93;79.18;100776.06;6346761;22;44661;-96
2021/07/13 06:29:07;;;;;;;;;15.25;12.50;;;;;17.33;79.00;100679.47;6346262;22;45416;-95
2021/07/13 06:31:37;;;;;;;;;20.50;17.00;;;;;17.34;78.79;100675.75;6319316;22;45378;-96
2021/07/13 06:34:11;;;;;;;;;18.00;15.75;;;;;17.41;79.12;100682.28;6353017;22;45352;-96
2021/07/13 06:36:39;;;;;;;;;18.00;14.50;;;;;17.65;79.05;100721.69;6347002;22;44774;-96
2021/07/13 06:39:05;;;;;;;;;19.00;15.50;;;;;18.00;79.41;100760.06;6319127;22;45543;-96
2021/07/13 06:41:33;;;;;;;;;17.75;15.25;;;;;17.43;79.52;100674.00;6341092;22;46898;-95
2021/07/13 06:44:21;;;;;;;;;;;;;;;;;;;;;
2021/07/13 06:47:23;;;;;;;;;;;;;;;;;;;;;
2021/07/13 06:49:55;;;;;;;;;16.50;13.75;;;;;17.52;79.01;100675.00;6313401;22;69362;-96
2021/07/13 06:52:45;;;;;;;;;16.25;14.25;;;;;17.53;78.98;100673.97;6346252;22;47260;-96
2021/07/13 06:55:17;;;;;;;;;16.25;14.50;;;;;17.56;79.55;100671.84;6319419;22;45642;-95
2021/07/13 06:57:48;;;;;;;;;16.50;16.00;;;;;17.52;79.41;100666.84;6345089;22;45209;-96
2021/07/13 07:01:03;;;;;;;;;16.75;15.50;;;;;17.57;79.18;100678.09;6319466;22;45398;-96
2021/07/13 07:03:47;;;;;;;;;;;;;;;;;;;;;
2021/07/13 07:06:30;;;;;;;;;;;;;;;;;;;;;
2021/07/13 07:09:09;;;;;;;;;;;;;;;;;;;;;
2021/07/13 07:11:50;;;;;;;;;;;;;;;;;;;;;
2021/07/13 07:14:21;;;;;;;;;21.00;18.50;;;;;18.58;79.43;100797.00;6319319;22;74399;-95
2021/07/13 07:16:52;;;;;;;;;17.75;14.75;;;;;17.61;78.92;100641.53;6318573;22;45496;-95
2021/07/13 07:20:06;;;;;;;;;;;;;;;;;;;;;
2021/07/13 07:25:40;;;;;;;;;23.25;19.50;;;;;18.18;79.26;100741.09;6321582;22;45372;-96
2021/07/13 07:28:21;;;;;;;;;;;;;;;;;;;;;
2021/07/13 07:30:48;;;;;;;;;16.50;16.00;;;;;18.30;79.41;100767.09;6321802;22;68145;-96
2021/07/13 07:33:49;;;;;;;;;;;;;;;;;;;;;
2021/07/13 07:40:18;;;;;;;;;;;;;;;;;;;;;
2021/07/13 07:43:38;;;;;;;;;18.75;15.50;;;;;18.04;78.43;100745.16;6321378;22;68117;-96
2021/07/13 07:46:01;;;;;;;;;17.00;15.25;;;;;17.84;78.38;100703.59;6223669;22;44859;-96
2021/07/13 07:48:32;;;;;;;;;18.00;15.50;;;;;18.11;78.58;100751.72;6199986;22;47493;-96
2021/07/13 07:51:26;;;;;;;;;;;;;;;;;;;;;
2021/07/13 07:54:00;;;;;;;;;21.50;17.50;;;;;17.83;78.15;100707.31;6225183;22;68272;-96
2021/07/13 07:56:29;;;;;;;;;20.00;16.75;;;;;17.67;78.81;100676.22;6225171;22;45517;-96
2021/07/13 07:59:06;;;;;;;;;16.50;15.50;;;;;18.11;78.62;100731.81;6223850;22;46655;-96
2021/07/13 08:06:38;;;;;;;;;20.50;14.50;;;;;17.81;79.17;100682.19;6161816;23;45441;-96
2021/07/13 09:18:45;;;;;;;;;;;;;;;;;;;;;
2021/07/13 09:24:57;;;;;;;;;;;;;;;;;;;;;
2021/07/13 09:57:41;;;;;;;;;12.50;10.50;;;;;18.43;80.12;100798.50;6324362;22;45318;-95
2021/07/13 10:00:15;;;;;;;;;13.25;12.25;;;;;18.80;80.49;100862.88;6299383;22;44763;-96
2021/07/13 10:03:42;;;;;;;;;;;;;;;;;;;;;
2021/07/13 10:06:29;;;;;;;;;;;;;;;;;;;;;
2021/07/13 10:09:13;;;;;;;;;;;;;;;;;;;;;
2021/07/13 10:12:09;;;;;;;;;12.25;12.25;;;;;18.39;81.36;100803.38;6194964;23;70113;-96
2021/07/13 10:14:48;;;;;;;;;6.00;5.00;;;;;18.56;80.98;100826.19;6171196;23;47829;-96
2021/07/13 10:17:23;;;;;;;;;12.00;10.75;;;;;18.96;81.44;100888.63;6193622;23;45136;-96
2021/07/13 10:20:05;;;;;;;;;12.00;10.75;;;;;18.96;81.44;100894.91;6165569;23;45305;-96
2021/07/13 10:22:54;;;;;;;;;12.25;10.00;;;;;18.17;81.02;100763.84;6164392;23;45515;-96
2021/07/13 10:25:58;;;;;;;;;11.75;9.00;;;;;18.30;81.23;100783.38;6167021;23;46807;-96
2021/07/13 10:28:42;;;;;;;;;13.75;10.00;;;;;17.90;81.53;100723.88;6132047;23;45186;-96
2021/07/13 10:31:20;;;;;;;;;;;;;;;;;;;;;
2021/07/13 10:33:56;;;;;;;;;;;;;;;;;;;;;
2021/07/13 10:36:41;;;;;;;;;9.00;9.00;;;;;18.08;81.52;100738.44;6185640;23;74263;-96
2021/07/13 10:39:33;;;;;;;;;9.00;9.00;;;;;19.07;81.87;100900.13;6160414;23;45622;-96
2021/07/13 10:42:23;;;;;;;;;12.25;9.25;;;;;18.19;82.25;100750.09;6190886;22;45396;-96
2021/07/13 10:45:18;;;;;;;;;9.50;7.75;;;;;18.29;81.45;100753.66;6282789;22;45414;-95
2021/07/13 10:47:56;;;;;;;;;12.25;9.00;;;;;19.13;81.71;100893.22;6281833;22;46626;-96
2021/07/13 10:50:22;;;;;;;;;8.00;6.75;;;;;19.06;81.67;100873.09;6284080;22;44791;-96
2021/07/13 10:52:57;;;;;;;;;6.00;6.00;;;;;18.35;81.84;100763.91;6285405;22;45440;-95
2021/07/13 10:55:41;;;;;;;;;8.25;8.25;;;;;19.18;81.90;100895.47;6286184;22;45290;-96
2021/07/13 10:58:23;;;;;;;;;5.25;5.25;;;;;19.19;82.31;100887.19;6284719;22;47716;-96
2021/07/13 11:01:01;;;;;;;;;;;;;;;;;;;;;
2021/07/13 11:03:47;;;;;;;;;12.00;10.75;;;;;19.25;82.50;100885.72;6316315;22;68068;-96
2021/07/13 11:12:59;;;;;;;;;8.00;8.00;;;;;18.25;82.24;100720.47;6291834;22;45393;-95
2021/07/13 11:15:41;;;;;;;;;;;;;;;;;;;;;
2021/07/13 11:18:32;;;;;;;;;10.75;9.25;;;;;18.46;82.31;100750.13;6303244;22;71146;-95
2021/07/13 14:26:33;;;;;;;;;28.50;27.25;;;;;19.28;84.97;100937.13;6272334;22;45569;-94
2021/07/13 14:29:16;;;;;;;;;;;;;;;;;;;;;
2021/07/13 14:35:42;;;;;;;;;;;;;;;;;;;;;
2021/07/13 16:33:02;;;;;;;;;;;;;;;;;;;;;
